Accueil
METAR-TAF:

METAR-TAF

Aéroports :

Aéroport international de Norwich

Norwich, Angleterre

latitude: 52-38N, longitude: 001-18E, altitude: 14 m

Observation

Le bulletin a été fait il y a 34 minutes, à 18:50 UTC
Vent 10 kt de est/sud-est
Température 6°C
Humidité 75%
Pression 1011 hPa
Visibilité 10 km ou plus
pas de nuages en-dessous de 1500 mètres et pas de cumulonimbus.

METAR: EGSH 201850Z 11010KT CAVOK 06/02 Q1011

Heure: 19:24 (19:24 UTC)

Prévision

Le bulletin a été fait il y a 2 heures et 24 minutes, à 17:00 UTC
Prévision valable du 20 à 18 UTC au 20 à 24 UTC
Vent 7 kt de est
Visibilité 10 km ou plus
Quelques nuages à une hauteur de 3000 ft
Probabilité 30% :
Temporairement
du 20 à 21 UTC au 20 à 24 UTC
Visibilité: 9000 m
Nuages fragmentés à une hauteur de 1400 ft

TAF: EGSH 201700Z 2018/2024 10007KT 9999 FEW030 PROB30 TEMPO 2021/2024 9000 BKN014

Observations et prévisions météorologiques de plus de 4000 aéroports (messages METAR et TAF).

Les stations disponibles sont représentées par des disques jaunes et rouges sur la carte.

Passer la souris dessus pour voir le nom de la station.

Cliquer dessus pour voir les observations et prévisions météorologiques.

Pour changer de carte: cliquez sur les boutons verts avec une croix noire pour zoomer, sur le bouton vert avec un tiret pour effectuer un zoom arrière, ou sur les flèches vertes pour les cartes adjacentes.


METAR-TAF: